Time;durP1;ratioP1;P1;durP2;ratioP2;P2;SDS_P1;SDS_P2;PMS_P1;PMS_P2;Temp;Humidity;BMP_temperature;BMP_pressure;BME280_temperature;BME280_humidity;BME280_pressure;Samples;Min_cycle;Max_cycle;Signal;HPM_P1;HPM_P2
2022/05/10 00:00:26;;;;;;;;;14.80;13.20;;;;;;;;5038868;28;8871;-65
2022/05/10 00:02:54;;;;;;;;;11.40;11.00;;;;;;;;5039305;28;8797;-64
2022/05/10 00:05:23;;;;;;;;;12.80;11.00;;;;;;;;5038907;28;8765;-64
2022/05/10 00:07:50;;;;;;;;;11.60;11.00;;;;;;;;5022338;28;8777;-64
2022/05/10 00:10:17;;;;;;;;;9.60;8.00;;;;;;;;5040086;28;8741;-62
2022/05/10 00:12:43;;;;;;;;;11.00;8.00;;;;;;;;5039224;28;8757;-64
2022/05/10 00:15:10;;;;;;;;;7.40;7.40;;;;;;;;5039174;28;8750;-64
2022/05/10 00:17:38;;;;;;;;;7.00;7.00;;;;;;;;5021252;28;8789;-64
2022/05/10 00:20:06;;;;;;;;;11.80;10.40;;;;;;;;5021778;28;8820;-64
2022/05/10 00:22:32;;;;;;;;;10.00;8.80;;;;;;;;5021405;28;8828;-64
2022/05/10 00:24:59;;;;;;;;;10.60;8.80;;;;;;;;5039722;28;9374;-64
2022/05/10 00:27:26;;;;;;;;;10.00;10.00;;;;;;;;5037399;28;8850;-64
2022/05/10 00:29:52;;;;;;;;;9.00;9.00;;;;;;;;5020902;28;8742;-64
2022/05/10 00:32:19;;;;;;;;;11.20;10.20;;;;;;;;5038236;28;8730;-63
2022/05/10 00:34:47;;;;;;;;;9.40;9.40;;;;;;;;5037202;28;8792;-64
2022/05/10 00:37:13;;;;;;;;;10.40;10.00;;;;;;;;5038984;28;9423;-64
2022/05/10 00:39:40;;;;;;;;;10.00;8.40;;;;;;;;5019863;28;8862;-64
2022/05/10 00:42:08;;;;;;;;;11.20;10.40;;;;;;;;5036579;28;8776;-64
2022/05/10 00:44:35;;;;;;;;;11.00;11.00;;;;;;;;5018173;28;8761;-64
2022/05/10 00:47:22;;;;;;;;;11.20;11.00;;;;;;;;5015150;28;8870;-64
2022/05/10 00:49:54;;;;;;;;;10.20;10.20;;;;;;;;5016239;28;8759;-64
2022/05/10 00:52:29;;;;;;;;;11.80;10.00;;;;;;;;5013549;28;8743;-65
2022/05/10 00:55:01;;;;;;;;;12.20;11.40;;;;;;;;4994921;28;8794;-64
2022/05/10 00:57:34;;;;;;;;;11.00;11.00;;;;;;;;4974526;28;8756;-65
2022/05/10 01:00:05;;;;;;;;;11.20;9.80;;;;;;;;4973692;28;8803;-63
2022/05/10 01:02:32;;;;;;;;;11.40;10.00;;;;;;;;4970969;28;8756;-64
2022/05/10 01:05:03;;;;;;;;;13.40;9.60;;;;;;;;4972990;28;8842;-63
2022/05/10 01:07:31;;;;;;;;;12.60;11.20;;;;;;;;4962336;28;8807;-62
2022/05/10 01:10:02;;;;;;;;;13.60;12.20;;;;;;;;4981286;28;8850;-65
2022/05/10 01:12:52;;;;;;;;;11.40;11.40;;;;;;;;4971945;28;8791;-64
2022/05/10 01:15:23;;;;;;;;;10.00;10.00;;;;;;;;4968975;28;8757;-63
2022/05/10 01:17:50;;;;;;;;;10.20;9.20;;;;;;;;4975594;28;8774;-64
2022/05/10 01:20:21;;;;;;;;;9.20;9.00;;;;;;;;4975287;28;8946;-64
2022/05/10 01:22:51;;;;;;;;;9.00;7.60;;;;;;;;4975700;28;8922;-64
2022/05/10 01:25:26;;;;;;;;;8.40;8.40;;;;;;;;4988640;28;8872;-61
2022/05/10 01:28:08;;;;;;;;;12.40;12.40;;;;;;;;4994513;28;8753;-63
2022/05/10 01:30:35;;;;;;;;;11.00;10.40;;;;;;;;5007851;28;8848;-63
2022/05/10 01:36:05;;;;;;;;;8.40;7.40;;;;;;;;4993281;28;9458;-64
2022/05/10 01:38:38;;;;;;;;;7.60;7.40;;;;;;;;4993772;28;9445;-64
2022/05/10 01:41:08;;;;;;;;;7.60;7.60;;;;;;;;4954816;28;8801;-63
2022/05/10 01:43:38;;;;;;;;;8.40;7.80;;;;;;;;4954878;28;8826;-62
2022/05/10 01:46:10;;;;;;;;;9.40;6.00;;;;;;;;4963570;28;9431;-62
2022/05/10 01:48:37;;;;;;;;;8.40;8.40;;;;;;;;4990402;28;8893;-62
2022/05/10 01:51:25;;;;;;;;;7.00;7.00;;;;;;;;4974890;28;8934;-62
2022/05/10 01:53:51;;;;;;;;;6.00;6.00;;;;;;;;4982320;28;8754;-63
2022/05/10 01:56:19;;;;;;;;;5.00;5.00;;;;;;;;4990421;28;9041;-62
2022/05/10 01:58:46;;;;;;;;;7.80;7.80;;;;;;;;4990995;28;8885;-63
2022/05/10 02:01:14;;;;;;;;;7.60;7.60;;;;;;;;4992465;28;8811;-62
2022/05/10 02:03:43;;;;;;;;;9.00;8.00;;;;;;;;4990353;28;8877;-62
2022/05/10 02:06:09;;;;;;;;;11.40;8.60;;;;;;;;4989641;28;8787;-63
2022/05/10 02:08:39;;;;;;;;;5.40;5.40;;;;;;;;4991288;28;8755;-63
2022/05/10 02:11:08;;;;;;;;;9.20;8.40;;;;;;;;4991670;28;9962;-63
2022/05/10 02:13:38;;;;;;;;;9.60;8.80;;;;;;;;4991291;28;8754;-62
2022/05/10 02:16:23;;;;;;;;;10.40;8.60;;;;;;;;5022894;28;9125;-62
2022/05/10 02:18:53;;;;;;;;;8.60;7.20;;;;;;;;4991616;28;8755;-62
2022/05/10 02:21:24;;;;;;;;;8.40;8.40;;;;;;;;4991871;28;9693;-62
2022/05/10 02:24:20;;;;;;;;;7.40;6.80;;;;;;;;4989080;28;8783;-63
2022/05/10 02:26:49;;;;;;;;;7.20;7.00;;;;;;;;4940663;28;9492;-62
2022/05/10 02:29:16;;;;;;;;;8.40;7.40;;;;;;;;4995724;28;8876;-63
2022/05/10 02:34:31;;;;;;;;;5.80;5.80;;;;;;;;4992909;28;8763;-63
2022/05/10 02:36:57;;;;;;;;;10.00;9.00;;;;;;;;4995276;28;9490;-64
2022/05/10 02:39:24;;;;;;;;;9.80;9.40;;;;;;;;5002134;28;8851;-62
2022/05/10 02:41:51;;;;;;;;;9.40;7.40;;;;;;;;4995415;28;8825;-63
2022/05/10 02:44:17;;;;;;;;;10.20;8.40;;;;;;;;4995868;28;8771;-62
2022/05/10 02:46:44;;;;;;;;;9.80;8.00;;;;;;;;5026846;28;8801;-63
2022/05/10 02:49:11;;;;;;;;;7.80;6.60;;;;;;;;5028284;28;8884;-67
2022/05/10 02:51:37;;;;;;;;;6.00;6.00;;;;;;;;4995327;28;8781;-67
2022/05/10 02:54:04;;;;;;;;;7.80;7.80;;;;;;;;4992197;28;8905;-68
2022/05/10 02:56:31;;;;;;;;;7.40;7.40;;;;;;;;4985439;28;8939;-69
2022/05/10 02:59:00;;;;;;;;;5.80;4.00;;;;;;;;4974938;28;8784;-68
2022/05/10 03:01:33;;;;;;;;;6.60;6.20;;;;;;;;4990762;28;8828;-68
2022/05/10 03:04:00;;;;;;;;;7.60;6.00;;;;;;;;5007405;28;8761;-71
2022/05/10 03:06:27;;;;;;;;;4.60;4.60;;;;;;;;4976224;28;8823;-68
2022/05/10 03:08:54;;;;;;;;;9.60;7.40;;;;;;;;4979182;28;8912;-68
2022/05/10 03:11:22;;;;;;;;;7.40;6.00;;;;;;;;5022108;28;8775;-68
2022/05/10 03:13:48;;;;;;;;;6.60;5.80;;;;;;;;5034079;28;8791;-68
2022/05/10 03:16:18;;;;;;;;;8.00;8.00;;;;;;;;5035180;28;8729;-61
2022/05/10 03:18:45;;;;;;;;;10.00;8.00;;;;;;;;5033322;28;8757;-65
2022/05/10 03:21:12;;;;;;;;;8.60;8.60;;;;;;;;5033136;28;8796;-65
2022/05/10 03:23:39;;;;;;;;;9.00;9.00;;;;;;;;5048729;28;8791;-63
2022/05/10 03:26:05;;;;;;;;;10.40;10.40;;;;;;;;5002594;28;8765;-63
2022/05/10 03:28:32;;;;;;;;;9.00;9.00;;;;;;;;5010330;28;9546;-62
2022/05/10 03:30:59;;;;;;;;;8.60;8.60;;;;;;;;4999960;28;8778;-63
2022/05/10 03:33:26;;;;;;;;;7.20;7.20;;;;;;;;4997228;28;8750;-62
2022/05/10 03:35:53;;;;;;;;;10.80;10.20;;;;;;;;4999104;28;8797;-62
2022/05/10 03:38:20;;;;;;;;;9.60;9.60;;;;;;;;4998661;28;8801;-62
2022/05/10 03:40:46;;;;;;;;;9.80;9.80;;;;;;;;4995379;28;8796;-63
2022/05/10 03:43:13;;;;;;;;;6.60;6.00;;;;;;;;4979666;28;8760;-62
2022/05/10 03:45:40;;;;;;;;;10.20;7.40;;;;;;;;4978446;28;9414;-63
2022/05/10 03:48:07;;;;;;;;;8.40;8.40;;;;;;;;4997318;28;8781;-63
2022/05/10 03:50:34;;;;;;;;;6.60;6.60;;;;;;;;4998647;28;9449;-62
2022/05/10 03:53:01;;;;;;;;;5.20;5.00;;;;;;;;4999059;28;8788;-62
2022/05/10 03:55:28;;;;;;;;;7.80;7.80;;;;;;;;5013783;28;8828;-62
2022/05/10 03:57:55;;;;;;;;;6.80;6.80;;;;;;;;5034361;28;8793;-63
2022/05/10 04:00:26;;;;;;;;;5.00;5.00;;;;;;;;5017995;28;8785;-62
2022/05/10 04:02:52;;;;;;;;;7.00;7.00;;;;;;;;5019317;28;8755;-62
2022/05/10 04:05:19;;;;;;;;;5.00;5.00;;;;;;;;5018481;28;8755;-61
2022/05/10 04:07:46;;;;;;;;;5.40;5.40;;;;;;;;5019759;28;8787;-62
2022/05/10 04:10:13;;;;;;;;;2.40;2.40;;;;;;;;5006747;28;8861;-62
2022/05/10 04:12:40;;;;;;;;;5.80;5.80;;;;;;;;4999754;28;8738;-62
2022/05/10 04:15:08;;;;;;;;;6.60;5.40;;;;;;;;4999049;28;8776;-62
2022/05/10 04:17:34;;;;;;;;;8.00;6.80;;;;;;;;4998267;28;8769;-62
2022/05/10 04:20:01;;;;;;;;;7.40;7.40;;;;;;;;4999642;28;8786;-62
2022/05/10 04:22:28;;;;;;;;;6.60;5.60;;;;;;;;5014189;28;8812;-61
2022/05/10 04:24:54;;;;;;;;;7.40;6.40;;;;;;;;5024487;28;8952;-62
2022/05/10 04:27:21;;;;;;;;;7.20;5.40;;;;;;;;5017851;28;9369;-62
2022/05/10 04:29:48;;;;;;;;;8.20;6.60;;;;;;;;5018356;28;8787;-63
2022/05/10 04:32:14;;;;;;;;;8.40;6.40;;;;;;;;5014782;28;8790;-64
2022/05/10 04:34:41;;;;;;;;;4.60;4.60;;;;;;;;5002779;28;8763;-63
2022/05/10 04:37:08;;;;;;;;;8.00;8.00;;;;;;;;5037580;28;8815;-64
2022/05/10 04:42:20;;;;;;;;;7.00;7.00;;;;;;;;4998000;28;9403;-64
2022/05/10 04:44:46;;;;;;;;;6.40;6.40;;;;;;;;4998173;28;8883;-63
2022/05/10 04:47:13;;;;;;;;;6.00;6.00;;;;;;;;4997739;28;8777;-63
2022/05/10 04:49:40;;;;;;;;;6.80;6.80;;;;;;;;4998256;28;8773;-63
2022/05/10 04:52:07;;;;;;;;;7.20;7.20;;;;;;;;4999393;28;8783;-63
2022/05/10 04:54:33;;;;;;;;;6.60;6.60;;;;;;;;5005516;28;8768;-63
2022/05/10 04:57:01;;;;;;;;;8.20;7.40;;;;;;;;5034079;28;8784;-63
2022/05/10 04:59:30;;;;;;;;;7.40;7.20;;;;;;;;5037085;28;8801;-63
2022/05/10 05:01:57;;;;;;;;;6.60;6.60;;;;;;;;5036630;28;8824;-62
2022/05/10 05:04:23;;;;;;;;;6.80;6.80;;;;;;;;5037971;28;9449;-62
2022/05/10 05:06:52;;;;;;;;;6.80;6.80;;;;;;;;5037527;28;8776;-63
2022/05/10 05:09:20;;;;;;;;;5.80;5.80;;;;;;;;5037662;28;8883;-64
2022/05/10 05:11:47;;;;;;;;;6.00;6.00;;;;;;;;5009233;28;8771;-62
2022/05/10 05:14:13;;;;;;;;;8.20;7.20;;;;;;;;5018060;28;9662;-64
2022/05/10 05:16:40;;;;;;;;;7.20;4.20;;;;;;;;5016930;28;8735;-65
2022/05/10 05:19:07;;;;;;;;;8.00;6.20;;;;;;;;5014736;28;8783;-64
2022/05/10 05:21:33;;;;;;;;;6.20;6.20;;;;;;;;5016339;28;8882;-64
2022/05/10 05:24:00;;;;;;;;;8.00;6.20;;;;;;;;5013004;28;8761;-63
2022/05/10 05:26:27;;;;;;;;;7.00;6.00;;;;;;;;4997569;28;8789;-64
2022/05/10 05:28:54;;;;;;;;;6.20;6.00;;;;;;;;4997354;28;9135;-69
2022/05/10 05:31:21;;;;;;;;;7.00;6.80;;;;;;;;4980619;28;8741;-65
2022/05/10 05:33:47;;;;;;;;;5.60;5.60;;;;;;;;4997766;28;8783;-65
2022/05/10 05:36:14;;;;;;;;;5.20;4.20;;;;;;;;4996954;28;8773;-65
2022/05/10 05:38:41;;;;;;;;;6.20;6.20;;;;;;;;4998032;28;8741;-65
2022/05/10 05:41:08;;;;;;;;;5.00;5.00;;;;;;;;5017090;28;8793;-63
2022/05/10 05:43:34;;;;;;;;;5.40;5.00;;;;;;;;5013936;28;8809;-64
2022/05/10 05:46:05;;;;;;;;;8.00;5.20;;;;;;;;5017165;28;8735;-65
2022/05/10 05:48:31;;;;;;;;;3.60;3.60;;;;;;;;5015993;28;8885;-65
2022/05/10 05:50:58;;;;;;;;;6.20;6.20;;;;;;;;5015728;28;8794;-66
2022/05/10 05:53:26;;;;;;;;;6.00;6.00;;;;;;;;5016454;28;8755;-65
2022/05/10 05:55:53;;;;;;;;;6.80;6.00;;;;;;;;4998367;28;8765;-65
2022/05/10 05:58:20;;;;;;;;;7.00;7.00;;;;;;;;4978823;28;8784;-64
2022/05/10 06:00:47;;;;;;;;;6.00;5.20;;;;;;;;4978612;28;8757;-66
2022/05/10 06:03:14;;;;;;;;;4.60;4.60;;;;;;;;4996416;28;8733;-66
2022/05/10 06:05:40;;;;;;;;;8.40;6.20;;;;;;;;4996062;28;8864;-66
2022/05/10 06:08:08;;;;;;;;;6.80;6.20;;;;;;;;4979214;28;9387;-66
2022/05/10 06:10:36;;;;;;;;;1.00;1.00;;;;;;;;5009643;28;8758;-66
2022/05/10 06:13:03;;;;;;;;;4.40;4.20;;;;;;;;5030416;28;8759;-65
2022/05/10 06:15:30;;;;;;;;;5.00;5.00;;;;;;;;5015468;28;9435;-66
2022/05/10 06:17:57;;;;;;;;;8.20;7.80;;;;;;;;5012420;28;8747;-67
2022/05/10 06:20:24;;;;;;;;;5.60;5.60;;;;;;;;5011521;28;8861;-67
2022/05/10 06:22:51;;;;;;;;;7.00;5.80;;;;;;;;5012411;28;8798;-69
2022/05/10 06:25:21;;;;;;;;;6.00;5.60;;;;;;;;4999925;28;8819;-71
2022/05/10 06:27:48;;;;;;;;;9.00;7.20;;;;;;;;4976840;28;8793;-69
2022/05/10 06:30:15;;;;;;;;;6.40;6.40;;;;;;;;4994713;28;8799;-69
2022/05/10 06:32:42;;;;;;;;;8.80;6.20;;;;;;;;4995704;28;8859;-69
2022/05/10 06:35:08;;;;;;;;;5.00;4.80;;;;;;;;4995507;28;8769;-69
2022/05/10 06:40:20;;;;;;;;;8.80;7.80;;;;;;;;5010192;28;8791;-67
2022/05/10 06:42:47;;;;;;;;;4.60;4.60;;;;;;;;5016551;28;8790;-69
2022/05/10 06:45:15;;;;;;;;;5.80;5.80;;;;;;;;5016589;28;8899;-69
2022/05/10 06:47:42;;;;;;;;;5.00;4.40;;;;;;;;5015515;28;8801;-69
2022/05/10 06:50:10;;;;;;;;;6.00;5.80;;;;;;;;5030172;28;8868;-67
2022/05/10 06:52:37;;;;;;;;;2.60;1.80;;;;;;;;5005181;28;8767;-66
2022/05/10 06:55:04;;;;;;;;;7.00;5.20;;;;;;;;5004629;28;8784;-66
2022/05/10 06:57:31;;;;;;;;;3.80;3.80;;;;;;;;4995647;28;8781;-67
2022/05/10 06:59:58;;;;;;;;;3.80;3.80;;;;;;;;4994565;28;8781;-68
2022/05/10 07:02:24;;;;;;;;;5.40;5.40;;;;;;;;4996619;28;8809;-65
2022/05/10 07:04:52;;;;;;;;;3.40;3.40;;;;;;;;4998918;28;8774;-66
2022/05/10 07:07:18;;;;;;;;;7.60;5.80;;;;;;;;4999361;28;8758;-64
2022/05/10 07:09:46;;;;;;;;;5.80;5.80;;;;;;;;4992324;28;8799;-66
2022/05/10 07:12:12;;;;;;;;;6.00;6.00;;;;;;;;5020076;28;8793;-66
2022/05/10 07:14:39;;;;;;;;;7.00;7.00;;;;;;;;5018765;28;8852;-66
2022/05/10 07:17:09;;;;;;;;;7.60;6.40;;;;;;;;5018799;28;8781;-65
2022/05/10 07:19:35;;;;;;;;;9.60;8.00;;;;;;;;5019554;28;8743;-65
2022/05/10 07:22:02;;;;;;;;;8.00;8.00;;;;;;;;5020857;28;8836;-63
2022/05/10 07:24:29;;;;;;;;;6.80;6.80;;;;;;;;5027445;28;8769;-64
2022/05/10 07:26:56;;;;;;;;;6.20;5.40;;;;;;;;4998905;28;8799;-63
2022/05/10 07:29:23;;;;;;;;;8.00;7.00;;;;;;;;4999749;28;9453;-63
2022/05/10 07:31:50;;;;;;;;;7.60;6.40;;;;;;;;5000317;28;8768;-63
2022/05/10 07:34:16;;;;;;;;;6.00;6.00;;;;;;;;5000392;28;8741;-63
2022/05/10 07:36:43;;;;;;;;;7.40;7.40;;;;;;;;4998647;28;8754;-67
2022/05/10 07:39:11;;;;;;;;;4.60;4.60;;;;;;;;5004091;28;8774;-67
2022/05/10 07:41:38;;;;;;;;;5.20;5.20;;;;;;;;5018754;28;8810;-65
2022/05/10 07:44:05;;;;;;;;;6.60;6.60;;;;;;;;5018172;28;9432;-64
2022/05/10 07:46:32;;;;;;;;;4.40;4.40;;;;;;;;5013910;28;9392;-69
2022/05/10 07:48:59;;;;;;;;;5.80;5.80;;;;;;;;5000240;28;8757;-62
2022/05/10 07:51:26;;;;;;;;;6.20;5.60;;;;;;;;5031387;28;8761;-64
2022/05/10 07:53:52;;;;;;;;;5.60;4.60;;;;;;;;5028948;28;8761;-65
2022/05/10 07:56:19;;;;;;;;;10.20;8.00;;;;;;;;5007283;28;8802;-67
2022/05/10 07:58:46;;;;;;;;;4.40;4.40;;;;;;;;4978795;28;8776;-68
2022/05/10 08:01:13;;;;;;;;;5.60;5.60;;;;;;;;4976385;28;8862;-65
2022/05/10 08:03:43;;;;;;;;;7.00;6.00;;;;;;;;4977111;28;8783;-65
2022/05/10 08:06:09;;;;;;;;;5.00;5.00;;;;;;;;4979498;28;8756;-64
2022/05/10 08:08:36;;;;;;;;;7.40;6.20;;;;;;;;4980175;28;8891;-64
2022/05/10 08:11:03;;;;;;;;;6.80;6.80;;;;;;;;4984629;28;8784;-63
2022/05/10 08:13:34;;;;;;;;;7.00;7.00;;;;;;;;4992996;28;8772;-69
2022/05/10 08:16:00;;;;;;;;;7.00;7.00;;;;;;;;4999336;28;8745;-65
2022/05/10 08:18:27;;;;;;;;;6.00;6.00;;;;;;;;4981588;28;8928;-66
2022/05/10 08:20:54;;;;;;;;;4.00;4.00;;;;;;;;4999219;28;9239;-67
2022/05/10 08:23:23;;;;;;;;;8.40;5.60;;;;;;;;4996785;28;8765;-71
2022/05/10 08:25:50;;;;;;;;;6.40;6.00;;;;;;;;5021174;28;8883;-69
2022/05/10 08:28:17;;;;;;;;;8.00;5.60;;;;;;;;5037904;28;8748;-62
2022/05/10 08:30:47;;;;;;;;;4.60;4.60;;;;;;;;5052839;28;8776;-64
2022/05/10 08:33:19;;;;;;;;;6.40;6.00;;;;;;;;5035288;28;8787;-64
2022/05/10 08:35:48;;;;;;;;;6.00;5.60;;;;;;;;5038304;28;8748;-64
2022/05/10 08:38:15;;;;;;;;;7.00;5.20;;;;;;;;5037114;28;8806;-64
2022/05/10 08:41:04;;;;;;;;;5.00;5.00;;;;;;;;5016819;28;8754;-64
2022/05/10 08:43:37;;;;;;;;;4.00;4.00;;;;;;;;4998356;28;8738;-64
2022/05/10 08:46:04;;;;;;;;;6.00;6.00;;;;;;;;5016197;28;8860;-64
2022/05/10 08:48:31;;;;;;;;;4.60;3.80;;;;;;;;5018827;28;8994;-64
2022/05/10 08:50:58;;;;;;;;;5.60;5.60;;;;;;;;5019023;28;8743;-64
2022/05/10 08:53:24;;;;;;;;;4.00;4.00;;;;;;;;5017683;28;8719;-64
2022/05/10 08:55:59;;;;;;;;;4.40;4.40;;;;;;;;5000727;28;8838;-65
2022/05/10 08:58:45;;;;;;;;;8.40;6.20;;;;;;;;4998889;28;8726;-63
2022/05/10 09:01:32;;;;;;;;;5.20;5.20;;;;;;;;4998113;28;8864;-64
2022/05/10 09:03:59;;;;;;;;;6.00;6.00;;;;;;;;5017529;28;8741;-64
2022/05/10 09:06:28;;;;;;;;;5.00;5.00;;;;;;;;5018211;28;8737;-64
2022/05/10 09:09:13;;;;;;;;;5.00;5.00;;;;;;;;5002911;28;8744;-64
2022/05/10 09:12:06;;;;;;;;;7.60;7.00;;;;;;;;5037880;28;8844;-64
2022/05/10 09:14:38;;;;;;;;;7.40;6.80;;;;;;;;4997775;28;8777;-64
2022/05/10 09:17:05;;;;;;;;;8.00;6.00;;;;;;;;5020360;28;8765;-64
2022/05/10 09:19:41;;;;;;;;;7.60;7.60;;;;;;;;5037689;28;8758;-65
2022/05/10 09:22:34;;;;;;;;;5.60;5.60;;;;;;;;5020848;28;8896;-64
2022/05/10 09:25:01;;;;;;;;;5.40;4.80;;;;;;;;5034593;28;8754;-64
2022/05/10 09:27:32;;;;;;;;;6.60;6.60;;;;;;;;5037359;28;8777;-65
2022/05/10 09:29:59;;;;;;;;;6.20;6.00;;;;;;;;5020100;28;8777;-65
2022/05/10 09:35:28;;;;;;;;;4.60;4.00;;;;;;;;5037337;28;8777;-65
2022/05/10 09:37:55;;;;;;;;;7.00;6.00;;;;;;;;5037950;28;9378;-65
2022/05/10 09:40:25;;;;;;;;;3.00;3.00;;;;;;;;5037355;28;8793;-64
2022/05/10 09:42:52;;;;;;;;;5.40;5.40;;;;;;;;5037154;28;8741;-65
2022/05/10 09:45:22;;;;;;;;;5.20;5.00;;;;;;;;5018349;28;8771;-64
2022/05/10 09:47:55;;;;;;;;;6.00;5.20;;;;;;;;5017405;28;8798;-65
2022/05/10 09:50:22;;;;;;;;;7.00;5.60;;;;;;;;5009007;28;8758;-64
2022/05/10 09:52:49;;;;;;;;;7.20;5.80;;;;;;;;5017493;28;8876;-65
2022/05/10 09:55:29;;;;;;;;;8.40;7.20;;;;;;;;5019864;28;8770;-65
2022/05/10 09:57:59;;;;;;;;;6.00;6.00;;;;;;;;4998269;28;8760;-65
2022/05/10 10:00:39;;;;;;;;;5.60;5.60;;;;;;;;4997533;28;8821;-65
2022/05/10 10:03:06;;;;;;;;;4.40;4.20;;;;;;;;4998232;28;8828;-65
2022/05/10 10:05:33;;;;;;;;;8.80;8.60;;;;;;;;4996243;28;8761;-65
2022/05/10 10:08:00;;;;;;;;;9.20;8.40;;;;;;;;4997707;28;8773;-65
2022/05/10 10:10:29;;;;;;;;;12.00;8.00;;;;;;;;5011616;28;8767;-64
2022/05/10 10:12:55;;;;;;;;;8.40;7.00;;;;;;;;5017788;28;8759;-65
2022/05/10 10:15:43;;;;;;;;;13.40;10.80;;;;;;;;5015598;28;9412;-65
2022/05/10 10:18:11;;;;;;;;;10.20;10.00;;;;;;;;5036841;28;8765;-65
2022/05/10 10:20:44;;;;;;;;;9.00;7.20;;;;;;;;5036309;28;8833;-65
2022/05/10 10:23:30;;;;;;;;;6.60;6.60;;;;;;;;5036728;28;8859;-65
2022/05/10 10:25:58;;;;;;;;;10.80;8.00;;;;;;;;5015955;28;8864;-65
2022/05/10 10:28:25;;;;;;;;;6.20;6.20;;;;;;;;4999348;28;8813;-63
2022/05/10 10:31:13;;;;;;;;;5.80;5.80;;;;;;;;5017541;28;8744;-65
2022/05/10 10:33:45;;;;;;;;;6.80;6.80;;;;;;;;5015906;28;8767;-65
2022/05/10 10:36:13;;;;;;;;;10.00;8.80;;;;;;;;5015953;28;8815;-65
2022/05/10 10:38:55;;;;;;;;;4.00;3.20;;;;;;;;5021078;28;8798;-65
2022/05/10 10:41:43;;;;;;;;;8.20;8.20;;;;;;;;5022352;28;8759;-65
2022/05/10 10:44:18;;;;;;;;;7.40;6.20;;;;;;;;5023848;28;8790;-65
2022/05/10 10:46:47;;;;;;;;;5.40;5.00;;;;;;;;5022202;28;8802;-67
2022/05/10 10:49:15;;;;;;;;;6.60;6.00;;;;;;;;5025824;28;8753;-69
2022/05/10 10:51:42;;;;;;;;;6.00;6.00;;;;;;;;5023870;28;8774;-71
2022/05/10 10:54:17;;;;;;;;;7.60;7.20;;;;;;;;5019163;28;9481;-63
2022/05/10 10:56:53;;;;;;;;;7.80;5.80;;;;;;;;5002311;28;8765;-71
2022/05/10 10:59:38;;;;;;;;;5.20;3.80;;;;;;;;5003878;28;8750;-62
2022/05/10 11:02:23;;;;;;;;;7.60;5.60;;;;;;;;5003864;28;8785;-70
2022/05/10 11:04:59;;;;;;;;;4.80;4.80;;;;;;;;5003615;28;8776;-67
2022/05/10 11:07:28;;;;;;;;;4.60;3.40;;;;;;;;5003839;28;8742;-68
2022/05/10 11:10:04;;;;;;;;;3.20;2.60;;;;;;;;5014175;28;8743;-71
2022/05/10 11:12:49;;;;;;;;;3.60;2.20;;;;;;;;5016175;28;8811;-64
2022/05/10 11:15:17;;;;;;;;;4.60;2.80;;;;;;;;5023259;28;8751;-71
2022/05/10 11:17:43;;;;;;;;;6.00;2.20;;;;;;;;5031859;28;8762;-66
2022/05/10 11:20:22;;;;;;;;;0.80;0.80;;;;;;;;5022760;28;8750;-70
2022/05/10 11:23:06;;;;;;;;;2.80;1.20;;;;;;;;5043014;28;8769;-69
2022/05/10 11:25:51;;;;;;;;;2.00;2.00;;;;;;;;5023070;28;8759;-61
2022/05/10 11:28:25;;;;;;;;;2.80;1.20;;;;;;;;5023860;28;8727;-68
2022/05/10 11:30:58;;;;;;;;;3.40;3.40;;;;;;;;5023331;28;8786;-67
2022/05/10 11:33:43;;;;;;;;;3.00;3.00;;;;;;;;5022036;28;8763;-69
2022/05/10 11:36:28;;;;;;;;;1.80;1.80;;;;;;;;5021619;28;8806;-66
2022/05/10 11:39:01;;;;;;;;;2.60;1.80;;;;;;;;5023183;28;8756;-71
2022/05/10 11:41:43;;;;;;;;;5.40;3.80;;;;;;;;5037824;28;8818;-62
2022/05/10 11:44:31;;;;;;;;;6.40;3.60;;;;;;;;5023549;28;8767;-63
2022/05/10 11:47:17;;;;;;;;;3.00;3.00;;;;;;;;5023197;28;8771;-67
2022/05/10 11:49:44;;;;;;;;;2.40;2.40;;;;;;;;5019900;28;8858;-71
2022/05/10 11:52:13;;;;;;;;;3.40;3.40;;;;;;;;5039625;28;8757;-71
2022/05/10 11:54:40;;;;;;;;;2.60;2.40;;;;;;;;5011808;28;8781;-47
2022/05/10 11:57:11;;;;;;;;;3.20;3.00;;;;;;;;5000240;28;8746;-70
2022/05/10 11:59:39;;;;;;;;;2.80;2.80;;;;;;;;4999792;28;9019;-65
2022/05/10 12:02:06;;;;;;;;;5.80;4.00;;;;;;;;4998688;28;8799;-65
2022/05/10 12:04:38;;;;;;;;;4.20;4.20;;;;;;;;4999400;28;8781;-65
2022/05/10 12:07:23;;;;;;;;;6.40;5.60;;;;;;;;5000407;28;8745;-65
2022/05/10 12:09:53;;;;;;;;;7.00;6.80;;;;;;;;5009658;28;8783;-65
2022/05/10 12:12:32;;;;;;;;;6.60;6.60;;;;;;;;5027649;28;8830;-64
2022/05/10 12:21:22;;;;;;;;;5.80;4.60;;;;;;;;5039357;28;9430;-65
2022/05/10 12:24:07;;;;;;;;;5.20;4.00;;;;;;;;5039151;28;8831;-65
2022/05/10 12:27:00;;;;;;;;;5.80;5.80;;;;;;;;5038939;28;8907;-65
2022/05/10 12:29:39;;;;;;;;;6.20;5.80;;;;;;;;5008612;28;8750;-65
2022/05/10 12:32:05;;;;;;;;;5.40;5.40;;;;;;;;5039105;28;8780;-65
2022/05/10 12:34:39;;;;;;;;;6.40;5.20;;;;;;;;5038014;28;8750;-65
2022/05/10 12:37:36;;;;;;;;;6.00;4.80;;;;;;;;5059630;28;8782;-65
2022/05/10 12:40:12;;;;;;;;;10.40;6.40;;;;;;;;5046107;28;8823;-65
2022/05/10 12:42:57;;;;;;;;;8.60;5.80;;;;;;;;5038324;28;8819;-65
2022/05/10 12:45:50;;;;;;;;;6.00;5.40;;;;;;;;5018753;28;8755;-65
2022/05/10 12:48:39;;;;;;;;;6.40;6.00;;;;;;;;5014496;28;8841;-64
2022/05/10 12:51:07;;;;;;;;;4.80;4.80;;;;;;;;5008256;28;8789;-65
2022/05/10 12:53:47;;;;;;;;;4.00;4.00;;;;;;;;5028212;28;8846;-65
2022/05/10 12:56:14;;;;;;;;;7.60;6.60;;;;;;;;5017807;28;8790;-66
2022/05/10 12:58:43;;;;;;;;;10.40;8.00;;;;;;;;5017983;28;8724;-65
2022/05/10 13:01:10;;;;;;;;;13.20;9.60;;;;;;;;5001102;28;8898;-66
2022/05/10 13:03:37;;;;;;;;;9.40;9.40;;;;;;;;4997921;28;8868;-65
2022/05/10 13:06:23;;;;;;;;;12.20;10.00;;;;;;;;5004072;28;9488;-65
2022/05/10 13:09:05;;;;;;;;;10.00;9.60;;;;;;;;5000607;28;8761;-65
2022/05/10 13:11:49;;;;;;;;;8.80;8.80;;;;;;;;5028610;28;8771;-65
2022/05/10 13:14:15;;;;;;;;;8.20;8.20;;;;;;;;5001799;28;8767;-66
2022/05/10 13:16:52;;;;;;;;;7.80;6.00;;;;;;;;5018192;28;9412;-66
2022/05/10 13:19:20;;;;;;;;;11.40;11.40;;;;;;;;5020939;28;9457;-64
2022/05/10 13:21:48;;;;;;;;;12.00;9.60;;;;;;;;5037749;28;8801;-66
2022/05/10 13:24:16;;;;;;;;;14.40;14.40;;;;;;;;5020036;28;8890;-66
2022/05/10 13:26:52;;;;;;;;;15.80;13.00;;;;;;;;5037597;28;8762;-65
2022/05/10 13:29:19;;;;;;;;;13.00;10.20;;;;;;;;5037030;28;8765;-64
2022/05/10 13:31:46;;;;;;;;;14.40;10.40;;;;;;;;5037480;28;8757;-66
2022/05/10 13:34:19;;;;;;;;;12.60;11.80;;;;;;;;5038094;28;8761;-66
2022/05/10 13:36:46;;;;;;;;;9.20;6.80;;;;;;;;5037419;28;8789;-65
2022/05/10 13:39:13;;;;;;;;;9.80;9.00;;;;;;;;5019835;28;8835;-66
2022/05/10 13:41:40;;;;;;;;;9.40;9.40;;;;;;;;5037021;28;8828;-65
2022/05/10 13:44:07;;;;;;;;;9.80;8.60;;;;;;;;5037307;28;8839;-66
2022/05/10 13:46:46;;;;;;;;;9.80;9.40;;;;;;;;5036405;28;9533;-65
2022/05/10 13:49:14;;;;;;;;;12.20;11.40;;;;;;;;5037683;28;8792;-65
2022/05/10 13:51:44;;;;;;;;;9.40;9.40;;;;;;;;5019400;28;8773;-66
2022/05/10 13:54:22;;;;;;;;;9.20;9.00;;;;;;;;5037032;28;8793;-66
2022/05/10 13:56:49;;;;;;;;;11.20;11.20;;;;;;;;5037089;28;8770;-66
2022/05/10 13:59:16;;;;;;;;;8.80;8.80;;;;;;;;5019698;28;8801;-66
2022/05/10 14:01:43;;;;;;;;;9.40;9.20;;;;;;;;5019410;28;8789;-65
2022/05/10 14:04:11;;;;;;;;;10.00;8.60;;;;;;;;5037427;28;8773;-66
2022/05/10 14:06:38;;;;;;;;;12.60;12.60;;;;;;;;5019345;28;8773;-65
2022/05/10 14:09:07;;;;;;;;;13.00;13.00;;;;;;;;5019505;28;8804;-65
2022/05/10 14:11:35;;;;;;;;;21.20;18.40;;;;;;;;5019402;28;8789;-65
2022/05/10 14:14:02;;;;;;;;;14.40;13.00;;;;;;;;5036712;28;8789;-65
2022/05/10 14:16:29;;;;;;;;;14.00;12.60;;;;;;;;5036711;28;9895;-65
2022/05/10 14:18:57;;;;;;;;;13.40;12.40;;;;;;;;5037319;28;8777;-65
2022/05/10 14:21:27;;;;;;;;;12.00;11.40;;;;;;;;5036629;28;8773;-65
2022/05/10 14:23:54;;;;;;;;;8.80;8.80;;;;;;;;5036769;28;8778;-66
2022/05/10 14:26:24;;;;;;;;;11.00;10.40;;;;;;;;5019043;28;8758;-65
2022/05/10 14:28:54;;;;;;;;;11.80;11.20;;;;;;;;5036841;28;9025;-65
2022/05/10 14:31:28;;;;;;;;;12.00;11.20;;;;;;;;5019986;28;8750;-65
2022/05/10 14:33:56;;;;;;;;;8.80;8.80;;;;;;;;5037464;28;8863;-66
2022/05/10 14:36:26;;;;;;;;;12.40;12.40;;;;;;;;5036861;28;8785;-65
2022/05/10 14:38:53;;;;;;;;;10.80;10.80;;;;;;;;5036802;28;8754;-65
2022/05/10 14:41:29;;;;;;;;;12.80;12.80;;;;;;;;5036377;28;8777;-65
2022/05/10 14:43:55;;;;;;;;;10.60;10.00;;;;;;;;5036866;28;8814;-65
2022/05/10 14:46:27;;;;;;;;;10.80;10.60;;;;;;;;5036712;28;8750;-65
2022/05/10 14:48:58;;;;;;;;;10.60;9.60;;;;;;;;5032202;28;8910;-65
2022/05/10 14:51:37;;;;;;;;;11.40;11.40;;;;;;;;5016665;28;8811;-65
2022/05/10 14:54:04;;;;;;;;;9.80;9.80;;;;;;;;5016733;28;8833;-65
2022/05/10 14:56:32;;;;;;;;;10.60;9.40;;;;;;;;4998946;28;8879;-64
2022/05/10 14:59:10;;;;;;;;;9.40;9.00;;;;;;;;5016686;28;8770;-65
2022/05/10 15:01:37;;;;;;;;;11.20;8.40;;;;;;;;5015117;28;8895;-65
2022/05/10 15:04:07;;;;;;;;;11.60;11.00;;;;;;;;5017330;28;8763;-65
2022/05/10 15:06:34;;;;;;;;;10.40;10.40;;;;;;;;5015072;28;8735;-65
2022/05/10 15:09:01;;;;;;;;;9.60;8.80;;;;;;;;5016617;28;8795;-65
2022/05/10 15:11:29;;;;;;;;;9.60;8.00;;;;;;;;5016538;28;8766;-65
2022/05/10 15:13:56;;;;;;;;;7.40;6.40;;;;;;;;5016656;28;8803;-65
2022/05/10 15:16:23;;;;;;;;;11.60;10.40;;;;;;;;5016943;28;8821;-64
2022/05/10 15:18:59;;;;;;;;;11.20;11.20;;;;;;;;5016815;28;8735;-65
2022/05/10 15:21:28;;;;;;;;;12.00;10.40;;;;;;;;5016421;28;8920;-65
2022/05/10 15:23:55;;;;;;;;;11.80;11.80;;;;;;;;5017725;28;8879;-66
2022/05/10 15:26:28;;;;;;;;;15.00;13.80;;;;;;;;5020266;28;8849;-65
2022/05/10 15:28:55;;;;;;;;;12.80;11.40;;;;;;;;5020035;28;9443;-65